Time;durP1;ratioP1;P1;durP2;ratioP2;P2;SDS_P1;SDS_P2;PMS_P1;PMS_P2;Temp;Humidity;BMP_temperature;BMP_pressure;BME280_temperature;BME280_humidity;BME280_pressure;Samples;Min_cycle;Max_cycle;Signal;HPM_P1;HPM_P2
2023/06/23 00:01:12;;;;;;;4.45;4.15;;;;;;;19.71;100.00;98624.38;4137488;28;20209;-51
2023/06/23 00:03:14;;;;;;;3.90;3.50;;;;;;;19.49;100.00;98626.16;4165907;28;20209;-52
2023/06/23 00:05:16;;;;;;;4.32;4.00;;;;;;;19.67;100.00;98628.06;4133677;28;20241;-51
2023/06/23 00:07:18;;;;;;;4.25;3.95;;;;;;;19.55;100.00;98625.78;4134631;28;20213;-53
2023/06/23 00:09:22;;;;;;;4.47;4.18;;;;;;;19.39;100.00;98631.91;4140036;28;20201;-51
2023/06/23 00:11:23;;;;;;;5.00;3.45;;;;;;;19.29;100.00;98626.53;4166764;28;20213;-51
2023/06/23 00:13:26;;;;;;;5.45;4.30;;;;;;;19.31;100.00;98636.19;4163760;28;20212;-51
2023/06/23 00:15:28;;;;;;;6.25;4.10;;;;;;;19.38;100.00;98635.81;4136457;28;20241;-51
2023/06/23 00:17:30;;;;;;;6.65;4.07;;;;;;;19.37;100.00;98628.63;4163840;28;20211;-52
2023/06/23 00:19:32;;;;;;;4.57;4.18;;;;;;;19.49;100.00;98626.16;4164766;28;20301;-50
2023/06/23 00:21:34;;;;;;;4.68;4.28;;;;;;;19.30;100.00;98634.56;4145568;28;20205;-53
2023/06/23 00:23:36;;;;;;;4.95;4.55;;;;;;;19.51;100.00;98629.50;4130755;28;20205;-53
2023/06/23 00:25:37;;;;;;;4.30;4.00;;;;;;;19.25;100.00;98629.09;4146012;28;20593;-52
2023/06/23 00:27:41;;;;;;;12.90;4.15;;;;;;;19.39;100.00;98627.16;4133361;28;20206;-52
2023/06/23 00:29:43;;;;;;;3.90;3.58;;;;;;;19.53;100.00;98625.28;4137360;28;20206;-54
2023/06/23 00:31:45;;;;;;;3.92;3.63;;;;;;;19.60;100.00;98622.09;4140643;28;20680;-52
2023/06/23 00:33:47;;;;;;;5.18;4.72;;;;;;;19.24;100.00;98627.44;4109305;28;1131220;-54
2023/06/23 00:35:49;;;;;;;4.45;4.05;;;;;;;19.18;100.00;98636.13;4132790;28;20634;-53
2023/06/23 00:37:53;;;;;;;4.32;3.92;;;;;;;19.34;100.00;98637.53;4135159;28;20202;-53
2023/06/23 00:39:54;;;;;;;4.50;4.10;;;;;;;19.07;100.00;98641.03;4165711;28;20671;-51
2023/06/23 00:42:01;;;;;;;5.53;5.13;;;;;;;18.82;100.00;98637.78;4133940;28;20214;-52
2023/06/23 00:44:07;;;;;;;4.60;4.22;;;;;;;18.87;100.00;98646.88;4149336;28;20221;-51
2023/06/23 00:46:15;;;;;;;4.28;3.65;;;;;;;19.06;100.00;98649.63;4148906;28;20229;-53
2023/06/23 00:48:18;;;;;;;4.30;4.00;;;;;;;19.00;100.00;98646.13;4137540;28;20259;-53
2023/06/23 00:50:22;;;;;;;4.88;4.57;;;;;;;19.09;100.00;98649.88;4140368;28;20680;-51
2023/06/23 00:52:24;;;;;;;5.10;4.75;;;;;;;19.05;100.00;98645.22;4135757;28;20209;-51
2023/06/23 00:54:28;;;;;;;4.32;4.03;;;;;;;18.88;100.00;98656.84;4131916;28;20631;-52
2023/06/23 00:56:31;;;;;;;4.72;4.40;;;;;;;18.89;100.00;98654.88;4147155;28;20220;-52
2023/06/23 00:58:35;;;;;;;5.22;4.82;;;;;;;18.87;100.00;98665.47;4146165;28;20205;-51
2023/06/23 01:00:37;;;;;;;5.60;5.18;;;;;;;18.91;100.00;98660.97;4135893;28;21797;-53
2023/06/23 01:02:39;;;;;;;4.35;4.05;;;;;;;18.97;100.00;98668.09;4164901;28;20216;-51
2023/06/23 01:04:41;;;;;;;4.78;4.47;;;;;;;18.99;100.00;98660.28;4135874;28;21166;-52
2023/06/23 01:07:17;;;;;;;6.07;4.55;;;;;;;18.89;100.00;98663.22;4135716;28;20202;-51
2023/06/23 01:09:31;;;;;;;5.47;5.18;;;;;;;19.00;100.00;98661.94;4135660;28;20204;-53
2023/06/23 01:11:55;;;;;;;4.90;4.43;;;;;;;18.96;100.00;98677.53;4151909;28;20213;-52
2023/06/23 01:14:06;;;;;;;5.07;4.65;;;;;;;18.91;100.00;98681.19;4153931;28;20758;-51
2023/06/23 01:16:29;;;;;;;5.38;4.97;;;;;;;19.05;100.00;98684.06;4136601;28;20283;-51
2023/06/23 01:18:58;;;;;;;5.13;4.72;;;;;;;18.92;100.00;98688.41;4132112;28;20217;-51
2023/06/23 01:21:03;;;;;;;5.85;5.30;;;;;;;18.82;100.00;98699.66;4135162;28;20245;-51
2023/06/23 01:23:43;;;;;;;5.35;4.88;;;;;;;18.98;100.00;98714.13;4129597;28;20221;-51
2023/06/23 01:25:54;;;;;;;5.72;5.32;;;;;;;18.71;100.00;98716.72;4165666;28;20319;-50
2023/06/23 01:28:29;;;;;;;4.88;4.50;;;;;;;18.60;100.00;98734.59;4144100;28;20239;-50
2023/06/23 01:30:32;;;;;;;6.75;6.25;;;;;;;18.64;100.00;98719.84;4164652;28;20211;-53
2023/06/23 01:32:41;;;;;;;5.63;5.13;;;;;;;18.69;100.00;98730.03;4134853;28;20213;-51
2023/06/23 01:34:51;;;;;;;5.63;5.22;;;;;;;18.77;100.00;98729.41;4136703;28;20216;-51
2023/06/23 01:36:58;;;;;;;5.80;5.38;;;;;;;18.87;100.00;98729.25;4138457;28;20216;-52
2023/06/23 01:39:03;;;;;;;5.45;5.05;;;;;;;18.82;100.00;98737.63;4140590;28;20730;-51
2023/06/23 01:41:09;;;;;;;5.32;4.85;;;;;;;18.86;100.00;98735.94;4135445;28;20217;-53
2023/06/23 01:43:11;;;;;;;8.40;5.80;;;;;;;18.71;100.00;98734.16;4137752;28;20248;-51
2023/06/23 01:45:14;;;;;;;5.40;5.00;;;;;;;18.79;100.00;98738.25;4147824;28;20327;-50
2023/06/23 01:47:19;;;;;;;5.38;4.90;;;;;;;18.81;100.00;98736.00;4135055;28;20209;-52
2023/06/23 01:49:30;;;;;;;6.85;6.35;;;;;;;18.88;100.00;98742.00;4131973;28;20240;-51
2023/06/23 01:51:32;;;;;;;8.77;5.65;;;;;;;18.82;100.00;98737.63;4149628;28;20308;-51
2023/06/23 01:53:34;;;;;;;5.57;5.05;;;;;;;19.02;100.00;98742.91;4131578;28;20210;-51
2023/06/23 01:55:38;;;;;;;6.20;5.60;;;;;;;18.96;100.00;98738.53;4152052;28;20669;-52
2023/06/23 01:57:41;;;;;;;6.55;6.05;;;;;;;18.97;100.00;98743.00;4151799;28;20740;-52
2023/06/23 01:59:44;;;;;;;6.95;6.38;;;;;;;18.84;100.00;98740.97;4139744;28;20204;-52
2023/06/23 02:01:48;;;;;;;7.00;6.40;;;;;;;18.89;100.00;98738.09;4140262;28;20294;-51
2023/06/23 02:03:50;;;;;;;6.72;6.22;;;;;;;18.90;100.00;98745.28;4168945;28;20209;-52
2023/06/23 02:05:54;;;;;;;6.72;6.22;;;;;;;18.98;100.00;98747.41;4134022;28;20237;-51
2023/06/23 02:07:57;;;;;;;5.82;5.40;;;;;;;19.03;100.00;98745.38;4148037;28;20538;-51
2023/06/23 02:10:00;;;;;;;7.72;7.13;;;;;;;19.01;100.00;98741.25;4163316;28;20715;-53
2023/06/23 02:12:06;;;;;;;6.43;5.93;;;;;;;19.04;100.00;98735.94;4135528;28;20793;-52
2023/06/23 02:14:09;;;;;;;9.00;8.30;;;;;;;18.88;100.00;98736.44;4133213;28;20987;-54
2023/06/23 02:16:12;;;;;;;7.85;7.25;;;;;;;18.80;100.00;98737.13;4139050;28;20233;-52
2023/06/23 02:18:14;;;;;;;8.95;8.27;;;;;;;18.85;100.00;98737.06;4137863;28;20634;-51
2023/06/23 02:20:16;;;;;;;8.68;7.97;;;;;;;18.68;100.00;98736.72;4148454;28;20218;-52
2023/06/23 02:22:26;;;;;;;10.30;9.55;;;;;;;18.67;100.00;98746.16;4138499;28;20217;-51
2023/06/23 02:24:28;;;;;;;10.15;9.38;;;;;;;18.63;100.00;98748.69;4132740;28;20217;-51
2023/06/23 02:26:30;;;;;;;10.70;9.80;;;;;;;18.66;100.00;98750.06;4136366;28;20761;-51
2023/06/23 02:28:32;;;;;;;10.93;9.93;;;;;;;18.69;100.00;98743.91;4149683;28;20634;-52
2023/06/23 02:30:34;;;;;;;8.02;7.43;;;;;;;18.70;100.00;98751.09;4132163;28;20214;-51
2023/06/23 02:32:36;;;;;;;10.13;9.43;;;;;;;18.71;100.00;98752.78;4131736;28;21119;-52
2023/06/23 02:34:38;;;;;;;9.35;8.75;;;;;;;18.77;100.00;98757.94;4133802;28;20309;-51
2023/06/23 02:36:48;;;;;;;9.35;8.75;;;;;;;18.55;100.00;98751.28;4138997;28;20236;-52
2023/06/23 02:38:53;;;;;;;9.98;9.15;;;;;;;18.68;100.00;98753.34;4146564;28;20279;-52
2023/06/23 02:40:56;;;;;;;10.30;9.52;;;;;;;18.65;100.00;98753.97;4163007;28;20239;-51
2023/06/23 02:43:10;;;;;;;10.65;9.85;;;;;;;18.50;100.00;98759.66;4129893;28;20480;-51
2023/06/23 02:45:20;;;;;;;10.00;9.23;;;;;;;18.49;100.00;98758.00;4162081;28;20285;-54
2023/06/23 02:47:23;;;;;;;10.88;10.07;;;;;;;18.43;100.00;98765.56;4131352;28;20209;-51
2023/06/23 02:49:28;;;;;;;10.57;9.52;;;;;;;18.32;100.00;98761.25;4161484;28;20239;-51
2023/06/23 02:51:30;;;;;;;11.05;10.15;;;;;;;18.39;100.00;98766.47;4147753;28;20209;-51
2023/06/23 02:53:40;;;;;;;10.43;9.63;;;;;;;18.62;100.00;98765.63;4131407;28;20213;-51
2023/06/23 02:55:47;;;;;;;12.80;11.90;;;;;;;18.47;100.00;98769.41;4134231;28;20225;-51
2023/06/23 02:57:51;;;;;;;13.35;12.30;;;;;;;18.56;100.00;98769.56;4133444;28;20206;-54
2023/06/23 02:59:53;;;;;;;13.95;12.88;;;;;;;18.41;100.00;98775.31;4145233;28;20611;-55
2023/06/23 03:01:56;;;;;;;12.88;10.00;;;;;;;18.47;100.00;98763.03;4146032;28;20201;-52
2023/06/23 03:03:58;;;;;;;10.70;9.85;;;;;;;18.54;100.00;98769.06;4146212;28;20682;-52
2023/06/23 03:06:00;;;;;;;13.55;12.45;;;;;;;18.27;100.00;98771.53;4146770;28;20233;-51
2023/06/23 03:08:01;;;;;;;12.18;11.18;;;;;;;18.27;100.00;98774.31;4138817;28;20239;-51
2023/06/23 03:10:04;;;;;;;14.60;13.50;;;;;;;18.27;100.00;98777.09;4164847;28;20686;-52
2023/06/23 03:12:06;;;;;;;13.57;12.57;;;;;;;18.35;100.00;98776.47;4134512;28;20646;-52
2023/06/23 03:14:08;;;;;;;14.20;12.98;;;;;;;18.41;100.00;98772.53;4166856;28;20212;-51
2023/06/23 03:16:24;;;;;;;13.30;12.00;;;;;;;18.42;100.00;98776.94;4138912;28;20823;-51
2023/06/23 03:18:29;;;;;;;11.63;10.73;;;;;;;18.46;100.00;98778.03;4162634;28;20216;-53
2023/06/23 03:20:35;;;;;;;13.32;12.32;;;;;;;18.40;100.00;98779.19;4152300;28;20220;-52
2023/06/23 03:22:41;;;;;;;13.63;12.52;;;;;;;18.49;100.00;98783.81;4146625;28;20633;-50
2023/06/23 03:24:44;;;;;;;13.38;12.43;;;;;;;18.47;100.00;98786.06;4133206;28;20240;-52
2023/06/23 03:26:47;;;;;;;16.77;15.57;;;;;;;18.32;100.00;98793.69;4145843;28;20687;-52
2023/06/23 03:28:52;;;;;;;15.07;13.88;;;;;;;18.40;100.00;98790.28;4131971;28;20210;-51
2023/06/23 03:31:00;;;;;;;13.25;12.20;;;;;;;18.35;100.00;98798.63;4138046;28;20271;-51
2023/06/23 03:33:09;;;;;;;17.40;16.10;;;;;;;18.40;100.00;98804.13;4148088;28;20213;-50
2023/06/23 03:35:13;;;;;;;18.90;17.50;;;;;;;18.02;100.00;98810.56;4169174;28;20227;-52
2023/06/23 03:37:18;;;;;;;22.63;20.45;;;;;;;17.87;100.00;98810.72;4133823;28;20284;-50
2023/06/23 03:42:49;;;;;;;20.02;18.42;;;;;;;18.23;100.00;98828.66;4127954;28;20208;-52
2023/06/23 03:44:53;;;;;;;20.35;18.85;;;;;;;18.10;100.00;98829.31;4135059;28;20303;-52
2023/06/23 03:46:59;;;;;;;23.70;21.85;;;;;;;18.11;100.00;98825.47;4163188;28;20204;-50
2023/06/23 03:49:02;;;;;;;21.02;19.45;;;;;;;18.12;100.00;98838.19;4134348;28;20209;-51
2023/06/23 03:51:04;;;;;;;19.23;17.73;;;;;;;18.23;100.00;98839.72;4146794;28;20280;-51
2023/06/23 03:53:06;;;;;;;18.63;17.05;;;;;;;18.31;100.00;98850.25;4164366;28;20208;-51
2023/06/23 03:55:11;;;;;;;24.17;22.30;;;;;;;18.15;100.00;98851.44;4137769;28;20237;-51
2023/06/23 03:57:16;;;;;;;25.23;23.10;;;;;;;18.06;100.00;98847.66;4164595;28;20230;-51
2023/06/23 03:59:18;;;;;;;20.77;19.08;;;;;;;18.15;100.00;98849.53;4167211;28;20241;-51
2023/06/23 04:01:22;;;;;;;24.98;23.08;;;;;;;17.98;100.00;98851.06;4166978;28;20994;-51
2023/06/23 04:03:25;;;;;;;25.20;23.30;;;;;;;18.03;100.00;98856.53;4135065;28;20687;-50
2023/06/23 04:05:30;;;;;;;27.23;25.05;;;;;;;18.02;100.00;98860.44;4138758;28;20257;-51
2023/06/23 04:07:33;;;;;;;23.08;21.10;;;;;;;18.15;100.00;98859.75;4138266;28;20208;-52
2023/06/23 04:09:37;;;;;;;25.67;23.38;;;;;;;18.15;100.00;98865.31;4167572;28;20205;-51
2023/06/23 04:11:39;;;;;;;24.30;22.48;;;;;;;18.12;100.00;98866.69;4150869;28;20205;-51
2023/06/23 04:13:42;;;;;;;24.80;22.80;;;;;;;18.19;100.00;98866.38;4121942;28;20210;-50
2023/06/23 04:15:45;;;;;;;26.13;24.08;;;;;;;18.17;100.00;98876.91;4164010;28;20289;-50
2023/06/23 04:17:47;;;;;;;26.10;23.80;;;;;;;18.15;100.00;98870.84;4138634;28;20237;-51
2023/06/23 04:19:51;;;;;;;22.77;21.02;;;;;;;18.17;100.00;98879.69;4146391;28;20233;-51
2023/06/23 04:21:54;;;;;;;25.55;23.65;;;;;;;18.09;100.00;98877.53;4167196;28;20207;-51
2023/06/23 04:23:56;;;;;;;25.90;23.70;;;;;;;18.19;100.00;98880.25;4134831;28;20261;-51
2023/06/23 04:25:58;;;;;;;26.73;24.58;;;;;;;18.08;100.00;98876.72;4148617;28;20286;-51
2023/06/23 04:28:04;;;;;;;24.75;22.95;;;;;;;18.21;100.00;98889.06;4137639;28;20668;-51
2023/06/23 04:30:07;;;;;;;27.02;24.85;;;;;;;18.16;100.00;98889.13;4135392;28;20206;-51
2023/06/23 04:32:10;;;;;;;23.58;21.77;;;;;;;18.28;100.00;98892.34;4150679;28;20307;-53
2023/06/23 04:34:12;;;;;;;27.38;25.00;;;;;;;18.25;100.00;98890.16;4148505;28;20217;-51
2023/06/23 04:36:15;;;;;;;25.10;23.30;;;;;;;18.29;100.00;98891.22;4167190;28;20216;-51
2023/06/23 04:38:21;;;;;;;24.33;22.30;;;;;;;18.39;100.00;98896.72;4147157;28;20206;-51
2023/06/23 04:40:39;;;;;;;23.52;21.52;;;;;;;18.39;100.00;98897.53;4148771;28;20248;-51
2023/06/23 04:42:51;;;;;;;26.35;24.45;;;;;;;18.29;100.00;98899.53;4148153;28;20205;-51
2023/06/23 04:44:54;;;;;;;27.08;24.92;;;;;;;18.33;100.00;98904.22;4142654;28;20308;-51
2023/06/23 04:47:01;;;;;;;27.77;25.55;;;;;;;18.30;100.00;98901.19;4142729;28;20209;-53
2023/06/23 04:49:09;;;;;;;30.08;27.63;;;;;;;18.10;100.00;98915.19;4167997;28;20762;-52
2023/06/23 04:51:12;;;;;;;24.00;22.25;;;;;;;18.29;100.00;98913.38;4164365;28;20204;-51
2023/06/23 04:53:21;;;;;;;24.10;22.20;;;;;;;18.43;100.00;98919.94;4149344;28;20206;-52
2023/06/23 04:55:29;;;;;;;22.70;20.80;;;;;;;18.42;100.00;98929.38;4137128;28;20252;-50
2023/06/23 04:57:33;;;;;;;24.52;22.30;;;;;;;18.49;100.00;98930.72;4165920;28;20297;-51
2023/06/23 04:59:37;;;;;;;26.05;23.73;;;;;;;18.39;100.00;98935.50;4136972;28;20700;-52
2023/06/23 05:01:43;;;;;;;23.73;21.73;;;;;;;18.46;100.00;98938.78;4142753;28;20205;-52
2023/06/23 05:03:48;;;;;;;25.65;22.98;;;;;;;18.54;100.00;98941.75;4166951;28;20212;-51
2023/06/23 05:05:52;;;;;;;22.60;20.95;;;;;;;18.46;100.00;98944.31;4151250;28;20229;-51
2023/06/23 05:07:55;;;;;;;20.55;19.02;;;;;;;18.63;100.00;98945.53;4147920;28;20213;-51
2023/06/23 05:09:58;;;;;;;21.17;19.48;;;;;;;18.55;100.00;98948.13;4150511;28;20209;-51
2023/06/23 05:12:02;;;;;;;19.55;18.15;;;;;;;18.58;100.00;98953.09;4147958;28;20649;-51
2023/06/23 05:14:04;;;;;;;17.23;15.77;;;;;;;18.64;100.00;98963.03;4148320;28;20206;-53
2023/06/23 05:16:10;;;;;;;17.10;15.75;;;;;;;18.75;100.00;98965.41;4147052;28;20308;-51
2023/06/23 05:18:13;;;;;;;16.42;15.18;;;;;;;18.81;100.00;98968.94;4167223;28;20208;-50
2023/06/23 05:20:17;;;;;;;16.20;15.00;;;;;;;18.81;100.00;98968.94;4139324;28;20217;-50
2023/06/23 05:22:22;;;;;;;16.23;15.02;;;;;;;18.91;100.00;98972.44;4141474;28;20204;-51
2023/06/23 05:24:27;;;;;;;15.32;14.13;;;;;;;18.97;100.00;98978.78;4140173;28;21152;-50
2023/06/23 05:26:34;;;;;;;15.65;14.55;;;;;;;19.00;100.00;98978.19;4165314;28;20211;-50
2023/06/23 05:28:37;;;;;;;14.27;13.18;;;;;;;19.06;100.00;98980.59;4119294;28;20287;-53
2023/06/23 05:30:40;;;;;;;17.08;15.80;;;;;;;18.92;100.00;98976.88;4136304;28;20208;-50
2023/06/23 05:32:42;;;;;;;13.45;12.45;;;;;;;19.03;100.00;98983.13;4141490;28;20292;-52
2023/06/23 05:34:48;;;;;;;14.48;13.38;;;;;;;19.02;100.00;98982.31;4133303;28;20221;-51
2023/06/23 05:36:50;;;;;;;15.43;14.23;;;;;;;18.96;100.00;98982.66;4143258;28;20201;-50
2023/06/23 05:38:53;;;;;;;15.07;13.75;;;;;;;19.02;100.00;98993.44;4132755;28;21075;-53
2023/06/23 05:40:55;;;;;;;14.10;12.93;;;;;;;19.12;99.62;98998.03;4152783;28;20209;-51
2023/06/23 05:42:57;;;;;;;14.52;13.32;;;;;;;19.13;98.98;98994.94;4135094;28;20630;-53
2023/06/23 05:45:00;;;;;;;13.68;12.57;;;;;;;19.10;97.99;98994.72;4139973;28;20228;-51
2023/06/23 05:47:04;;;;;;;13.55;12.55;;;;;;;19.07;96.14;99000.88;4134147;28;20209;-50
2023/06/23 05:49:09;;;;;;;10.55;9.57;;;;;;;19.20;96.50;98995.50;4136960;28;20212;-50
2023/06/23 05:51:15;;;;;;;12.40;11.43;;;;;;;19.30;96.56;99005.63;4140655;28;20209;-53
2023/06/23 05:53:18;;;;;;;10.93;10.07;;;;;;;19.22;94.33;99009.06;4138693;28;20703;-52
2023/06/23 05:55:20;;;;;;;10.43;9.65;;;;;;;19.23;93.42;98999.59;4135205;28;20583;-52
2023/06/23 05:57:30;;;;;;;10.43;9.68;;;;;;;19.37;93.38;99006.94;4135080;28;20206;-51
2023/06/23 05:59:41;;;;;;;9.65;8.75;;;;;;;19.38;93.37;99003.03;4133631;28;20206;-50
2023/06/23 06:01:45;;;;;;;11.63;8.90;;;;;;;19.41;92.77;99002.47;4135024;28;20217;-50
2023/06/23 06:04:05;;;;;;;10.57;9.60;;;;;;;19.53;92.13;99019.53;4134401;28;20284;-50
2023/06/23 06:06:07;;;;;;;8.20;7.38;;;;;;;19.61;92.37;99012.50;4141406;28;20231;-50
2023/06/23 06:08:10;;;;;;;8.98;7.53;;;;;;;19.85;91.33;99018.88;4135162;28;20212;-50
2023/06/23 06:10:12;;;;;;;10.63;9.82;;;;;;;19.98;91.24;99015.34;4150811;28;20763;-51
2023/06/23 06:12:15;;;;;;;8.38;7.78;;;;;;;20.19;90.32;99031.47;4145765;28;20213;-51
2023/06/23 06:14:18;;;;;;;9.48;8.77;;;;;;;20.14;88.05;99028.78;4130922;28;20557;-52
2023/06/23 06:16:20;;;;;;;9.30;8.57;;;;;;;20.33;87.45;99035.19;4148577;28;20228;-50
2023/06/23 06:18:23;;;;;;;8.13;7.53;;;;;;;20.57;86.24;99030.34;4141220;28;20215;-53
2023/06/23 06:20:26;;;;;;;8.93;8.23;;;;;;;20.59;85.02;99030.03;4166354;28;20208;-51
2023/06/23 06:22:30;;;;;;;8.55;7.75;;;;;;;20.87;84.48;99037.38;4137229;28;20208;-51
2023/06/23 06:24:32;;;;;;;8.30;7.50;;;;;;;21.00;81.82;99031.06;4165433;28;20577;-51
2023/06/23 06:26:34;;;;;;;7.55;7.05;;;;;;;21.08;82.05;99027.56;4149516;28;20224;-50
2023/06/23 06:28:36;;;;;;;7.18;6.68;;;;;;;21.07;81.14;99037.03;4133845;28;20201;-50
2023/06/23 06:30:40;;;;;;;7.95;7.35;;;;;;;21.13;80.96;99041.41;4148369;28;20288;-50
2023/06/23 06:32:42;;;;;;;6.78;6.28;;;;;;;21.42;80.30;99044.75;4132740;28;20209;-50
2023/06/23 06:34:45;;;;;;;6.55;6.05;;;;;;;21.48;79.46;99043.50;4147440;28;20240;-51
2023/06/23 06:36:47;;;;;;;6.47;5.88;;;;;;;21.68;79.44;99054.28;4135344;28;20695;-53
2023/06/23 06:38:50;;;;;;;7.25;6.75;;;;;;;21.85;78.75;99060.09;4142499;28;20271;-50
2023/06/23 06:40:54;;;;;;;7.63;5.70;;;;;;;21.94;76.24;99058.22;4140094;28;20205;-50
2023/06/23 06:42:56;;;;;;;6.32;5.82;;;;;;;21.94;76.22;99069.38;4122241;28;20212;-50
2023/06/23 06:44:58;;;;;;;6.05;5.55;;;;;;;22.13;76.57;99068.13;4135211;28;20722;-51
2023/06/23 06:47:01;;;;;;;5.80;5.40;;;;;;;22.22;75.70;99068.19;4137714;28;20216;-51
2023/06/23 06:49:03;;;;;;;6.38;5.90;;;;;;;22.22;73.81;99071.84;4168133;28;20211;-50
2023/06/23 06:51:05;;;;;;;5.68;5.35;;;;;;;22.21;73.95;99075.75;4124994;28;20217;-50
2023/06/23 06:53:08;;;;;;;4.80;4.43;;;;;;;22.44;73.53;99079.47;4142098;28;20551;-50
2023/06/23 06:55:21;;;;;;;4.15;3.90;;;;;;;22.55;73.09;99076.13;4137200;28;20232;-51
2023/06/23 06:57:22;;;;;;;5.15;4.65;;;;;;;22.41;71.84;99088.44;4163914;28;20295;-50
2023/06/23 06:59:24;;;;;;;12.77;4.57;;;;;;;22.50;71.70;99086.59;4149240;28;20200;-52
2023/06/23 07:01:26;;;;;;;5.90;5.00;;;;;;;22.35;71.17;99086.88;4135025;28;20232;-51
2023/06/23 07:03:29;;;;;;;6.82;4.88;;;;;;;22.40;71.83;99095.16;4141829;28;20580;-51
2023/06/23 07:05:30;;;;;;;5.60;5.07;;;;;;;22.29;70.84;99104.88;4167619;28;20230;-50
2023/06/23 07:07:32;;;;;;;4.65;4.25;;;;;;;22.20;70.69;99101.16;4141652;28;20649;-50
2023/06/23 07:09:34;;;;;;;4.00;3.33;;;;;;;22.23;71.99;99106.13;4141975;28;20204;-50
2023/06/23 07:11:36;;;;;;;4.95;4.65;;;;;;;22.27;70.41;99109.94;4139425;28;20208;-50
2023/06/23 07:13:37;;;;;;;4.82;4.25;;;;;;;22.29;70.42;99113.22;4141158;28;20630;-50
2023/06/23 07:15:39;;;;;;;4.32;4.00;;;;;;;22.28;69.76;99119.94;4136849;28;20251;-50
2023/06/23 07:17:40;;;;;;;4.82;4.28;;;;;;;22.56;68.74;99116.03;4134030;28;20216;-50
2023/06/23 07:19:42;;;;;;;4.85;4.15;;;;;;;22.91;68.78;99115.22;4138854;28;20209;-50
2023/06/23 07:21:44;;;;;;;5.07;3.83;;;;;;;23.34;68.47;99116.38;4136551;28;20213;-50
2023/06/23 07:23:45;;;;;;;4.07;3.75;;;;;;;23.44;65.77;99116.13;4140582;28;20260;-50
2023/06/23 07:25:50;;;;;;;6.03;4.30;;;;;;;23.67;66.19;99126.13;4170350;28;20231;-51
2023/06/23 07:27:52;;;;;;;5.35;3.60;;;;;;;23.45;65.42;99131.75;4150661;28;20674;-49
2023/06/23 07:29:54;;;;;;;4.13;3.65;;;;;;;23.50;64.55;99132.44;4167179;28;20262;-50
2023/06/23 07:31:55;;;;;;;5.53;3.47;;;;;;;23.48;64.05;99133.91;4149212;28;21049;-51
2023/06/23 07:33:57;;;;;;;4.07;3.75;;;;;;;23.49;63.96;99141.13;4135711;28;20245;-50
2023/06/23 07:35:59;;;;;;;3.42;3.13;;;;;;;23.27;64.52;99129.97;4137447;28;20224;-50
2023/06/23 07:38:01;;;;;;;3.22;2.95;;;;;;;22.85;65.64;99136.81;4168963;28;20270;-51
2023/06/23 07:40:04;;;;;;;3.40;2.85;;;;;;;22.94;66.84;99148.06;4139618;28;20599;-52
2023/06/23 07:42:06;;;;;;;3.15;2.85;;;;;;;23.10;64.89;99143.78;4143054;28;20205;-50
2023/06/23 07:44:08;;;;;;;8.38;3.25;;;;;;;23.41;66.10;99139.13;4137277;28;20217;-51
2023/06/23 07:46:10;;;;;;;3.25;3.05;;;;;;;23.52;63.97;99140.50;4141458;28;20244;-50
2023/06/23 07:48:12;;;;;;;4.18;2.72;;;;;;;23.67;63.74;99141.75;4138989;28;20210;-50
2023/06/23 07:50:14;;;;;;;2.95;2.65;;;;;;;24.13;63.39;99147.78;4132393;28;20243;-54
2023/06/23 07:52:15;;;;;;;3.88;3.38;;;;;;;24.30;62.62;99147.03;4136362;28;20201;-50
2023/06/23 07:54:17;;;;;;;3.28;2.70;;;;;;;24.02;60.70;99152.03;4150466;28;20216;-51
2023/06/23 07:56:19;;;;;;;2.83;2.63;;;;;;;23.98;62.22;99146.56;4133652;28;20285;-51
2023/06/23 07:58:20;;;;;;;3.22;2.92;;;;;;;23.93;63.13;99148.34;4135282;28;20205;-50
2023/06/23 08:00:23;;;;;;;2.78;2.58;;;;;;;24.04;62.07;99154.47;4134892;28;20209;-49
2023/06/23 08:02:25;;;;;;;2.83;2.58;;;;;;;23.98;60.81;99143.78;4142053;28;20263;-52
2023/06/23 08:04:27;;;;;;;3.97;3.55;;;;;;;24.50;63.20;99147.25;4137946;28;20262;-52
2023/06/23 08:06:29;;;;;;;11.77;3.05;;;;;;;24.60;60.84;99155.38;4136959;28;20224;-50
2023/06/23 08:08:32;;;;;;;2.80;2.38;;;;;;;24.16;60.20;99152.75;4133003;28;20209;-52
2023/06/23 08:10:35;;;;;;;3.78;2.47;;;;;;;24.11;62.53;99154.84;4167912;28;20565;-50
2023/06/23 08:12:37;;;;;;;5.20;2.72;;;;;;;23.90;61.57;99152.94;4134437;28;20614;-50
2023/06/23 08:14:39;;;;;;;3.35;2.83;;;;;;;23.54;61.79;99155.00;4149717;28;20212;-49
2023/06/23 08:16:40;;;;;;;4.30;2.67;;;;;;;23.45;62.93;99154.13;4166269;28;20237;-50
2023/06/23 08:18:42;;;;;;;2.97;2.78;;;;;;;23.48;63.78;99156.25;4149901;28;20249;-50
2023/06/23 08:20:44;;;;;;;3.95;2.30;;;;;;;23.44;64.96;99164.47;4150563;28;20248;-52
2023/06/23 08:22:45;;;;;;;3.15;2.85;;;;;;;23.47;64.37;99176.97;4135434;28;20325;-52
2023/06/23 08:24:47;;;;;;;2.80;2.45;;;;;;;23.94;63.77;99172.38;4135537;28;20229;-49
2023/06/23 08:26:49;;;;;;;3.65;3.35;;;;;;;24.49;60.83;99179.22;4164901;28;20228;-50
2023/06/23 08:28:50;;;;;;;3.38;2.50;;;;;;;24.54;59.88;99184.63;4128371;28;20218;-50
2023/06/23 08:30:52;;;;;;;7.50;3.05;;;;;;;24.42;58.41;99181.66;4150456;28;20216;-50
2023/06/23 08:32:54;;;;;;;2.55;2.13;;;;;;;24.24;60.76;99182.72;4137780;28;20618;-50
2023/06/23 08:35:00;;;;;;;3.08;2.30;;;;;;;23.60;60.29;99181.66;4135927;28;20252;-50
2023/06/23 08:37:01;;;;;;;2.80;2.40;;;;;;;23.42;61.54;99191.06;4141414;28;20209;-50
2023/06/23 08:39:03;;;;;;;3.05;2.03;;;;;;;23.09;62.51;99186.81;4149704;28;20204;-50
2023/06/23 08:41:05;;;;;;;7.80;2.35;;;;;;;23.04;62.44;99189.75;4166953;28;20212;-52
2023/06/23 08:43:10;;;;;;;2.97;2.67;;;;;;;23.06;64.28;99193.88;4167241;28;20211;-50
2023/06/23 08:45:13;;;;;;;2.22;1.80;;;;;;;22.97;62.94;99192.13;4131377;28;20236;-50
2023/06/23 08:47:16;;;;;;;3.88;2.30;;;;;;;23.04;63.33;99203.69;4138633;28;20232;-52
2023/06/23 08:49:20;;;;;;;2.58;2.03;;;;;;;23.20;63.48;99199.44;4167941;28;20208;-52
2023/06/23 08:51:23;;;;;;;2.25;2.05;;;;;;;23.02;62.25;99203.16;4149858;28;20625;-52
2023/06/23 08:53:24;;;;;;;2.40;2.20;;;;;;;23.28;60.51;99198.66;4120534;28;20201;-49
2023/06/23 08:55:27;;;;;;;2.80;2.60;;;;;;;23.29;60.59;99203.13;4135812;28;20243;-52
2023/06/23 08:57:29;;;;;;;1.58;1.48;;;;;;;23.18;61.04;99207.31;4146917;28;20893;-49
2023/06/23 08:59:30;;;;;;;1.90;1.80;;;;;;;23.27;61.75;99217.41;4137851;28;20227;-50
2023/06/23 09:01:33;;;;;;;2.95;2.13;;;;;;;23.45;61.81;99219.19;4136026;28;20208;-50
2023/06/23 09:03:35;;;;;;;2.28;1.80;;;;;;;23.52;58.55;99218.78;4149433;28;21041;-51
2023/06/23 09:05:39;;;;;;;2.00;1.80;;;;;;;24.12;58.54;99230.06;4136711;28;20232;-50
2023/06/23 09:07:42;;;;;;;1.98;1.77;;;;;;;24.64;56.63;99226.38;4134986;28;20251;-50
2023/06/23 09:09:47;;;;;;;2.83;1.95;;;;;;;24.42;55.42;99215.25;4142255;28;20845;-50
2023/06/23 09:11:49;;;;;;;3.55;2.05;;;;;;;24.76;56.25;99223.78;4130819;28;20288;-51
2023/06/23 09:13:52;;;;;;;2.92;1.92;;;;;;;25.12;54.83;99232.75;4145193;28;20212;-50
2023/06/23 09:15:54;;;;;;;2.25;1.85;;;;;;;24.98;56.61;99234.88;4130843;28;20228;-50
2023/06/23 09:18:06;;;;;;;3.50;1.88;;;;;;;25.26;55.82;99227.03;4136742;28;20239;-51
2023/06/23 09:20:09;;;;;;;2.33;2.13;;;;;;;25.24;56.25;99227.38;4168705;28;20766;-50
2023/06/23 09:22:12;;;;;;;2.45;2.25;;;;;;;25.55;54.82;99222.44;4151896;28;20295;-50
2023/06/23 09:24:14;;;;;;;3.28;2.30;;;;;;;26.22;54.59;99223.50;4136557;28;20212;-51
2023/06/23 09:26:18;;;;;;;2.53;1.95;;;;;;;26.01;52.67;99228.19;4131422;28;20767;-50
2023/06/23 09:28:27;;;;;;;9.15;2.97;;;;;;;25.59;52.42;99226.22;4138720;28;20241;-50
2023/06/23 09:30:33;;;;;;;6.07;1.77;;;;;;;25.78;53.13;99229.50;4149928;28;20783;-51
2023/06/23 09:32:36;;;;;;;2.35;1.90;;;;;;;26.41;53.37;99235.16;4141733;28;20213;-50
2023/06/23 09:34:38;;;;;;;2.53;2.33;;;;;;;26.49;51.10;99228.69;4150065;28;20220;-51
2023/06/23 09:36:40;;;;;;;2.85;1.88;;;;;;;26.32;49.97;99233.56;4142367;28;20206;-50
2023/06/23 09:38:43;;;;;;;2.53;1.83;;;;;;;25.86;51.35;99237.06;4147132;28;20212;-50
2023/06/23 09:40:44;;;;;;;1.77;1.67;;;;;;;26.33;50.80;99235.19;4167691;28;20208;-51